Mirinzal, Brazil
Current Conditions -  °F | °C
As of 1:00 PM on Wednesday 22 Oct 2014 (Local Time) from SBSL Reporting Station
Rain Showers Rain Showers  
Wind Chill: 86°   Ceiling: 1700
Heat Index: 89°   Visibility: 5mi
Dew Point: 68°   Wind: 12mph
Humidity: 55%   Direction: 70°ENE
Pressure: NA   Gusts: NA
Location:  2.07°S, 44.78°W
Report Text: SBSL 221600Z 07010KT 030V120 8000 VCSH BKN017 FEW020TCU 30/20 Q1012
Loading
Personal Weather Stations






























Interactive Weather Map
Tropical Storm Tracking
New forecast layout! Learn more

10-Day Weather Forecast

Advertisements
Track Severe Weather on mobile